sensor_id;sensor_type;location;lat;lon;timestamp;P1;durP1;ratioP1;P2;durP2;ratioP2
24681;SDS011;12802;53.390;-2.328;2023-07-22T00:01:18;9.30;;;4.63;;
24681;SDS011;12802;53.390;-2.328;2023-07-22T00:03:44;6.50;;;4.75;;
24681;SDS011;12802;53.390;-2.328;2023-07-22T00:06:10;9.55;;;4.47;;
24681;SDS011;12802;53.390;-2.328;2023-07-22T00:08:36;6.75;;;4.68;;
24681;SDS011;12802;53.390;-2.328;2023-07-22T00:11:06;5.90;;;4.03;;
24681;SDS011;12802;53.390;-2.328;2023-07-22T00:13:33;8.48;;;4.55;;
24681;SDS011;12802;53.390;-2.328;2023-07-22T00:15:59;6.80;;;4.22;;
24681;SDS011;12802;53.390;-2.328;2023-07-22T00:18:26;6.38;;;4.05;;
24681;SDS011;12802;53.390;-2.328;2023-07-22T00:20:53;5.22;;;4.07;;
24681;SDS011;12802;53.390;-2.328;2023-07-22T00:23:20;6.63;;;3.95;;
24681;SDS011;12802;53.390;-2.328;2023-07-22T00:25:46;7.43;;;4.13;;
24681;SDS011;12802;53.390;-2.328;2023-07-22T00:28:12;5.40;;;4.43;;
24681;SDS011;12802;53.390;-2.328;2023-07-22T00:30:38;8.48;;;4.75;;
24681;SDS011;12802;53.390;-2.328;2023-07-22T00:33:04;7.95;;;5.18;;
24681;SDS011;12802;53.390;-2.328;2023-07-22T00:35:31;7.88;;;6.22;;
24681;SDS011;12802;53.390;-2.328;2023-07-22T00:37:57;10.77;;;6.45;;
24681;SDS011;12802;53.390;-2.328;2023-07-22T00:40:23;10.60;;;5.75;;
24681;SDS011;12802;53.390;-2.328;2023-07-22T00:42:49;7.75;;;5.18;;
24681;SDS011;12802;53.390;-2.328;2023-07-22T00:45:15;7.32;;;5.03;;
24681;SDS011;12802;53.390;-2.328;2023-07-22T00:47:41;10.85;;;5.22;;
24681;SDS011;12802;53.390;-2.328;2023-07-22T00:50:07;8.95;;;5.28;;
24681;SDS011;12802;53.390;-2.328;2023-07-22T00:52:33;10.43;;;5.75;;
24681;SDS011;12802;53.390;-2.328;2023-07-22T00:54:59;9.23;;;5.57;;
24681;SDS011;12802;53.390;-2.328;2023-07-22T00:57:27;9.32;;;5.38;;
24681;SDS011;12802;53.390;-2.328;2023-07-22T00:59:53;10.85;;;5.63;;
24681;SDS011;12802;53.390;-2.328;2023-07-22T01:02:20;7.38;;;5.78;;
24681;SDS011;12802;53.390;-2.328;2023-07-22T01:04:46;13.77;;;5.68;;
24681;SDS011;12802;53.390;-2.328;2023-07-22T01:07:13;9.95;;;6.03;;
24681;SDS011;12802;53.390;-2.328;2023-07-22T01:09:40;10.20;;;5.95;;
24681;SDS011;12802;53.390;-2.328;2023-07-22T01:12:07;9.32;;;6.00;;
24681;SDS011;12802;53.390;-2.328;2023-07-22T01:14:34;10.00;;;5.68;;
24681;SDS011;12802;53.390;-2.328;2023-07-22T01:17:04;11.07;;;6.03;;
24681;SDS011;12802;53.390;-2.328;2023-07-22T01:19:33;11.82;;;6.32;;
24681;SDS011;12802;53.390;-2.328;2023-07-22T01:21:59;9.95;;;6.00;;
24681;SDS011;12802;53.390;-2.328;2023-07-22T01:24:27;8.70;;;5.70;;
24681;SDS011;12802;53.390;-2.328;2023-07-22T01:26:54;8.73;;;5.75;;
24681;SDS011;12802;53.390;-2.328;2023-07-22T01:29:21;12.60;;;5.95;;
24681;SDS011;12802;53.390;-2.328;2023-07-22T01:34:16;11.60;;;5.57;;
24681;SDS011;12802;53.390;-2.328;2023-07-22T01:36:42;8.90;;;6.10;;
24681;SDS011;12802;53.390;-2.328;2023-07-22T01:39:08;9.18;;;6.25;;
24681;SDS011;12802;53.390;-2.328;2023-07-22T01:41:36;9.85;;;6.18;;
24681;SDS011;12802;53.390;-2.328;2023-07-22T01:44:02;11.30;;;6.40;;
24681;SDS011;12802;53.390;-2.328;2023-07-22T01:46:28;11.18;;;6.68;;
24681;SDS011;12802;53.390;-2.328;2023-07-22T01:48:55;10.25;;;6.65;;
24681;SDS011;12802;53.390;-2.328;2023-07-22T01:51:20;7.03;;;5.70;;
24681;SDS011;12802;53.390;-2.328;2023-07-22T01:53:46;9.15;;;6.85;;
24681;SDS011;12802;53.390;-2.328;2023-07-22T01:56:12;14.07;;;6.55;;
24681;SDS011;12802;53.390;-2.328;2023-07-22T01:58:38;9.73;;;7.00;;
24681;SDS011;12802;53.390;-2.328;2023-07-22T02:01:04;10.98;;;6.90;;
24681;SDS011;12802;53.390;-2.328;2023-07-22T02:03:30;9.52;;;7.07;;
24681;SDS011;12802;53.390;-2.328;2023-07-22T02:06:06;11.43;;;6.75;;
24681;SDS011;12802;53.390;-2.328;2023-07-22T02:08:32;10.88;;;6.57;;
24681;SDS011;12802;53.390;-2.328;2023-07-22T02:11:05;13.80;;;7.05;;
24681;SDS011;12802;53.390;-2.328;2023-07-22T02:13:32;8.57;;;6.43;;
24681;SDS011;12802;53.390;-2.328;2023-07-22T02:15:59;15.68;;;7.00;;
24681;SDS011;12802;53.390;-2.328;2023-07-22T02:18:26;12.10;;;5.93;;
24681;SDS011;12802;53.390;-2.328;2023-07-22T02:20:52;12.32;;;6.05;;
24681;SDS011;12802;53.390;-2.328;2023-07-22T02:23:18;9.73;;;6.57;;
24681;SDS011;12802;53.390;-2.328;2023-07-22T02:25:48;8.27;;;6.18;;
24681;SDS011;12802;53.390;-2.328;2023-07-22T02:28:14;11.93;;;6.03;;
24681;SDS011;12802;53.390;-2.328;2023-07-22T02:30:40;10.32;;;5.90;;
24681;SDS011;12802;53.390;-2.328;2023-07-22T02:33:06;7.60;;;6.00;;
24681;SDS011;12802;53.390;-2.328;2023-07-22T02:35:34;9.68;;;5.45;;
24681;SDS011;12802;53.390;-2.328;2023-07-22T02:37:59;9.18;;;6.18;;
24681;SDS011;12802;53.390;-2.328;2023-07-22T02:40:27;10.82;;;5.90;;
24681;SDS011;12802;53.390;-2.328;2023-07-22T02:42:53;9.07;;;6.28;;
24681;SDS011;12802;53.390;-2.328;2023-07-22T02:45:19;14.40;;;6.00;;
24681;SDS011;12802;53.390;-2.328;2023-07-22T02:47:45;11.60;;;5.95;;
24681;SDS011;12802;53.390;-2.328;2023-07-22T02:50:10;9.38;;;6.50;;
24681;SDS011;12802;53.390;-2.328;2023-07-22T02:52:36;8.38;;;6.00;;
24681;SDS011;12802;53.390;-2.328;2023-07-22T02:55:06;9.15;;;5.95;;
24681;SDS011;12802;53.390;-2.328;2023-07-22T02:57:33;9.02;;;5.53;;
24681;SDS011;12802;53.390;-2.328;2023-07-22T02:59:59;10.20;;;5.65;;
24681;SDS011;12802;53.390;-2.328;2023-07-22T03:02:29;13.45;;;6.10;;
24681;SDS011;12802;53.390;-2.328;2023-07-22T03:04:54;9.02;;;5.65;;
24681;SDS011;12802;53.390;-2.328;2023-07-22T03:07:21;8.25;;;5.30;;
24681;SDS011;12802;53.390;-2.328;2023-07-22T03:09:47;10.23;;;5.65;;
24681;SDS011;12802;53.390;-2.328;2023-07-22T03:12:13;8.35;;;5.55;;
24681;SDS011;12802;53.390;-2.328;2023-07-22T03:14:38;10.02;;;5.32;;
24681;SDS011;12802;53.390;-2.328;2023-07-22T03:17:04;8.88;;;4.80;;
24681;SDS011;12802;53.390;-2.328;2023-07-22T03:19:30;8.13;;;5.40;;
24681;SDS011;12802;53.390;-2.328;2023-07-22T03:21:56;9.18;;;5.38;;
24681;SDS011;12802;53.390;-2.328;2023-07-22T03:24:22;10.98;;;4.80;;
24681;SDS011;12802;53.390;-2.328;2023-07-22T03:26:47;8.60;;;4.95;;
24681;SDS011;12802;53.390;-2.328;2023-07-22T03:29:14;10.48;;;5.13;;
24681;SDS011;12802;53.390;-2.328;2023-07-22T03:31:39;7.55;;;5.13;;
24681;SDS011;12802;53.390;-2.328;2023-07-22T03:34:05;9.45;;;4.57;;
24681;SDS011;12802;53.390;-2.328;2023-07-22T03:36:31;7.13;;;4.43;;
24681;SDS011;12802;53.390;-2.328;2023-07-22T03:38:59;12.45;;;6.18;;
24681;SDS011;12802;53.390;-2.328;2023-07-22T03:41:25;10.30;;;4.93;;
24681;SDS011;12802;53.390;-2.328;2023-07-22T03:43:51;10.90;;;5.10;;
24681;SDS011;12802;53.390;-2.328;2023-07-22T03:46:17;8.90;;;5.78;;
24681;SDS011;12802;53.390;-2.328;2023-07-22T03:48:43;9.88;;;5.63;;
24681;SDS011;12802;53.390;-2.328;2023-07-22T03:51:08;10.85;;;5.65;;
24681;SDS011;12802;53.390;-2.328;2023-07-22T03:53:34;10.20;;;5.75;;
24681;SDS011;12802;53.390;-2.328;2023-07-22T03:56:00;11.20;;;6.18;;
24681;SDS011;12802;53.390;-2.328;2023-07-22T03:58:25;14.70;;;6.63;;
24681;SDS011;12802;53.390;-2.328;2023-07-22T04:00:51;12.13;;;6.78;;
24681;SDS011;12802;53.390;-2.328;2023-07-22T04:03:17;13.10;;;7.07;;
24681;SDS011;12802;53.390;-2.328;2023-07-22T04:05:43;15.75;;;7.80;;
24681;SDS011;12802;53.390;-2.328;2023-07-22T04:08:08;10.82;;;7.38;;
24681;SDS011;12802;53.390;-2.328;2023-07-22T04:10:34;14.15;;;7.82;;
24681;SDS011;12802;53.390;-2.328;2023-07-22T04:13:00;15.82;;;8.00;;
24681;SDS011;12802;53.390;-2.328;2023-07-22T04:15:25;15.25;;;8.90;;
24681;SDS011;12802;53.390;-2.328;2023-07-22T04:17:52;16.98;;;9.07;;
24681;SDS011;12802;53.390;-2.328;2023-07-22T04:20:18;16.67;;;9.32;;
24681;SDS011;12802;53.390;-2.328;2023-07-22T04:22:43;15.30;;;9.18;;
24681;SDS011;12802;53.390;-2.328;2023-07-22T04:25:09;23.90;;;10.98;;
24681;SDS011;12802;53.390;-2.328;2023-07-22T04:27:35;22.75;;;11.63;;
24681;SDS011;12802;53.390;-2.328;2023-07-22T04:30:01;19.25;;;10.80;;
24681;SDS011;12802;53.390;-2.328;2023-07-22T04:32:27;16.15;;;10.30;;
24681;SDS011;12802;53.390;-2.328;2023-07-22T04:34:53;19.42;;;10.70;;
24681;SDS011;12802;53.390;-2.328;2023-07-22T04:37:19;22.88;;;11.50;;
24681;SDS011;12802;53.390;-2.328;2023-07-22T04:39:48;18.02;;;10.45;;
24681;SDS011;12802;53.390;-2.328;2023-07-22T04:42:14;18.73;;;10.68;;
24681;SDS011;12802;53.390;-2.328;2023-07-22T04:44:40;18.20;;;11.18;;
24681;SDS011;12802;53.390;-2.328;2023-07-22T04:47:06;21.35;;;10.75;;
24681;SDS011;12802;53.390;-2.328;2023-07-22T04:49:31;20.88;;;11.02;;
24681;SDS011;12802;53.390;-2.328;2023-07-22T04:51:57;21.50;;;11.15;;
24681;SDS011;12802;53.390;-2.328;2023-07-22T04:54:23;19.75;;;10.77;;
24681;SDS011;12802;53.390;-2.328;2023-07-22T04:56:49;18.00;;;10.82;;
24681;SDS011;12802;53.390;-2.328;2023-07-22T04:59:14;15.45;;;10.00;;
24681;SDS011;12802;53.390;-2.328;2023-07-22T05:01:41;17.67;;;10.13;;
24681;SDS011;12802;53.390;-2.328;2023-07-22T05:04:06;18.40;;;9.43;;
24681;SDS011;12802;53.390;-2.328;2023-07-22T05:06:32;20.00;;;10.20;;
24681;SDS011;12802;53.390;-2.328;2023-07-22T05:08:58;20.02;;;10.25;;
24681;SDS011;12802;53.390;-2.328;2023-07-22T05:11:24;15.57;;;9.50;;
24681;SDS011;12802;53.390;-2.328;2023-07-22T05:13:50;17.73;;;9.95;;
24681;SDS011;12802;53.390;-2.328;2023-07-22T05:16:16;13.95;;;9.20;;
24681;SDS011;12802;53.390;-2.328;2023-07-22T05:18:41;18.73;;;10.07;;
24681;SDS011;12802;53.390;-2.328;2023-07-22T05:21:07;14.40;;;8.77;;
24681;SDS011;12802;53.390;-2.328;2023-07-22T05:23:33;18.58;;;10.10;;
24681;SDS011;12802;53.390;-2.328;2023-07-22T05:25:59;17.40;;;10.25;;
24681;SDS011;12802;53.390;-2.328;2023-07-22T05:28:25;18.85;;;9.45;;
24681;SDS011;12802;53.390;-2.328;2023-07-22T05:30:50;17.13;;;9.57;;
24681;SDS011;12802;53.390;-2.328;2023-07-22T05:33:16;17.40;;;9.95;;
24681;SDS011;12802;53.390;-2.328;2023-07-22T05:35:42;18.33;;;10.23;;
24681;SDS011;12802;53.390;-2.328;2023-07-22T05:38:07;17.45;;;11.48;;
24681;SDS011;12802;53.390;-2.328;2023-07-22T05:40:33;18.73;;;10.98;;
24681;SDS011;12802;53.390;-2.328;2023-07-22T05:42:59;18.15;;;10.80;;
24681;SDS011;12802;53.390;-2.328;2023-07-22T05:45:25;18.85;;;11.05;;
24681;SDS011;12802;53.390;-2.328;2023-07-22T05:47:50;18.13;;;11.07;;
24681;SDS011;12802;53.390;-2.328;2023-07-22T05:50:16;17.50;;;11.27;;
24681;SDS011;12802;53.390;-2.328;2023-07-22T05:52:42;21.88;;;11.68;;
24681;SDS011;12802;53.390;-2.328;2023-07-22T05:55:08;24.15;;;12.63;;
24681;SDS011;12802;53.390;-2.328;2023-07-22T05:57:35;21.35;;;11.75;;
24681;SDS011;12802;53.390;-2.328;2023-07-22T06:00:00;23.33;;;11.73;;
24681;SDS011;12802;53.390;-2.328;2023-07-22T06:02:37;21.88;;;12.32;;
24681;SDS011;12802;53.390;-2.328;2023-07-22T06:05:03;22.77;;;13.45;;
24681;SDS011;12802;53.390;-2.328;2023-07-22T06:07:29;21.60;;;12.50;;
24681;SDS011;12802;53.390;-2.328;2023-07-22T06:09:54;18.40;;;12.93;;
24681;SDS011;12802;53.390;-2.328;2023-07-22T06:12:20;17.48;;;11.02;;
24681;SDS011;12802;53.390;-2.328;2023-07-22T06:14:46;19.27;;;12.02;;
24681;SDS011;12802;53.390;-2.328;2023-07-22T06:17:12;19.35;;;12.45;;
24681;SDS011;12802;53.390;-2.328;2023-07-22T06:19:38;17.55;;;10.57;;
24681;SDS011;12802;53.390;-2.328;2023-07-22T06:22:03;24.83;;;12.48;;
24681;SDS011;12802;53.390;-2.328;2023-07-22T06:24:29;20.17;;;11.40;;
24681;SDS011;12802;53.390;-2.328;2023-07-22T06:26:55;18.55;;;12.20;;
24681;SDS011;12802;53.390;-2.328;2023-07-22T06:29:21;20.58;;;11.93;;
24681;SDS011;12802;53.390;-2.328;2023-07-22T06:31:47;21.27;;;11.23;;
24681;SDS011;12802;53.390;-2.328;2023-07-22T06:34:13;19.65;;;10.88;;
24681;SDS011;12802;53.390;-2.328;2023-07-22T06:36:38;23.13;;;12.02;;
24681;SDS011;12802;53.390;-2.328;2023-07-22T06:39:04;20.42;;;12.43;;
24681;SDS011;12802;53.390;-2.328;2023-07-22T06:41:30;19.05;;;12.35;;
24681;SDS011;12802;53.390;-2.328;2023-07-22T06:43:56;19.23;;;12.80;;
24681;SDS011;12802;53.390;-2.328;2023-07-22T06:46:21;29.30;;;12.88;;
24681;SDS011;12802;53.390;-2.328;2023-07-22T06:48:47;21.63;;;13.13;;
24681;SDS011;12802;53.390;-2.328;2023-07-22T06:51:13;18.55;;;12.25;;
24681;SDS011;12802;53.390;-2.328;2023-07-22T06:53:39;21.45;;;12.43;;
24681;SDS011;12802;53.390;-2.328;2023-07-22T06:56:04;25.48;;;12.75;;
24681;SDS011;12802;53.390;-2.328;2023-07-22T06:58:30;23.40;;;13.52;;
24681;SDS011;12802;53.390;-2.328;2023-07-22T07:00:56;22.08;;;13.88;;
24681;SDS011;12802;53.390;-2.328;2023-07-22T07:03:22;30.27;;;14.90;;
24681;SDS011;12802;53.390;-2.328;2023-07-22T07:05:52;23.02;;;14.38;;
24681;SDS011;12802;53.390;-2.328;2023-07-22T07:08:21;23.05;;;14.02;;
24681;SDS011;12802;53.390;-2.328;2023-07-22T07:10:47;24.70;;;14.75;;
24681;SDS011;12802;53.390;-2.328;2023-07-22T07:13:13;27.83;;;15.75;;
24681;SDS011;12802;53.390;-2.328;2023-07-22T07:15:39;30.13;;;16.98;;
24681;SDS011;12802;53.390;-2.328;2023-07-22T07:18:05;31.75;;;17.52;;
24681;SDS011;12802;53.390;-2.328;2023-07-22T07:20:30;28.13;;;17.17;;
24681;SDS011;12802;53.390;-2.328;2023-07-22T07:22:56;27.83;;;16.95;;
24681;SDS011;12802;53.390;-2.328;2023-07-22T07:25:22;23.17;;;16.50;;
24681;SDS011;12802;53.390;-2.328;2023-07-22T07:27:48;26.08;;;17.48;;
24681;SDS011;12802;53.390;-2.328;2023-07-22T07:30:14;25.77;;;16.92;;
24681;SDS011;12802;53.390;-2.328;2023-07-22T07:32:39;27.92;;;18.00;;
24681;SDS011;12802;53.390;-2.328;2023-07-22T07:35:05;25.38;;;17.35;;
24681;SDS011;12802;53.390;-2.328;2023-07-22T07:37:32;31.50;;;17.90;;
24681;SDS011;12802;53.390;-2.328;2023-07-22T07:39:57;29.33;;;19.50;;
24681;SDS011;12802;53.390;-2.328;2023-07-22T07:42:27;28.02;;;18.67;;
24681;SDS011;12802;53.390;-2.328;2023-07-22T07:44:53;29.37;;;17.77;;
24681;SDS011;12802;53.390;-2.328;2023-07-22T07:47:19;29.88;;;18.17;;
24681;SDS011;12802;53.390;-2.328;2023-07-22T07:49:45;29.30;;;18.73;;
24681;SDS011;12802;53.390;-2.328;2023-07-22T07:52:11;25.20;;;17.13;;
24681;SDS011;12802;53.390;-2.328;2023-07-22T07:54:37;26.20;;;17.08;;
24681;SDS011;12802;53.390;-2.328;2023-07-22T07:57:03;27.58;;;16.77;;
24681;SDS011;12802;53.390;-2.328;2023-07-22T07:59:29;27.98;;;17.73;;
24681;SDS011;12802;53.390;-2.328;2023-07-22T08:01:55;26.10;;;17.77;;
24681;SDS011;12802;53.390;-2.328;2023-07-22T08:04:20;24.23;;;16.80;;
24681;SDS011;12802;53.390;-2.328;2023-07-22T08:06:46;26.85;;;16.33;;
24681;SDS011;12802;53.390;-2.328;2023-07-22T08:09:12;25.73;;;15.48;;
24681;SDS011;12802;53.390;-2.328;2023-07-22T08:11:43;22.30;;;16.40;;
24681;SDS011;12802;53.390;-2.328;2023-07-22T08:14:10;19.70;;;14.40;;
24681;SDS011;12802;53.390;-2.328;2023-07-22T08:16:35;22.15;;;14.70;;
24681;SDS011;12802;53.390;-2.328;2023-07-22T08:19:01;24.80;;;15.10;;
24681;SDS011;12802;53.390;-2.328;2023-07-22T08:21:27;19.63;;;14.95;;
24681;SDS011;12802;53.390;-2.328;2023-07-22T08:23:53;21.15;;;14.20;;
24681;SDS011;12802;53.390;-2.328;2023-07-22T08:26:19;23.23;;;13.73;;
24681;SDS011;12802;53.390;-2.328;2023-07-22T08:28:47;21.90;;;13.63;;
24681;SDS011;12802;53.390;-2.328;2023-07-22T08:31:13;21.48;;;14.07;;
24681;SDS011;12802;53.390;-2.328;2023-07-22T08:33:38;18.08;;;13.00;;
24681;SDS011;12802;53.390;-2.328;2023-07-22T08:36:04;20.05;;;13.85;;
24681;SDS011;12802;53.390;-2.328;2023-07-22T08:38:30;23.58;;;13.63;;
24681;SDS011;12802;53.390;-2.328;2023-07-22T08:40:56;17.38;;;13.45;;
24681;SDS011;12802;53.390;-2.328;2023-07-22T08:43:22;21.25;;;14.23;;
24681;SDS011;12802;53.390;-2.328;2023-07-22T08:45:49;19.38;;;13.43;;
24681;SDS011;12802;53.390;-2.328;2023-07-22T08:48:16;20.75;;;14.02;;
24681;SDS011;12802;53.390;-2.328;2023-07-22T08:50:52;23.23;;;14.30;;
24681;SDS011;12802;53.390;-2.328;2023-07-22T08:53:24;18.98;;;11.95;;
24681;SDS011;12802;53.390;-2.328;2023-07-22T08:55:51;18.33;;;12.40;;
24681;SDS011;12802;53.390;-2.328;2023-07-22T08:58:18;17.67;;;12.35;;
24681;SDS011;12802;53.390;-2.328;2023-07-22T09:00:44;15.95;;;11.38;;
24681;SDS011;12802;53.390;-2.328;2023-07-22T09:03:11;21.00;;;12.25;;
24681;SDS011;12802;53.390;-2.328;2023-07-22T09:05:36;23.73;;;11.70;;
24681;SDS011;12802;53.390;-2.328;2023-07-22T09:08:04;17.80;;;11.68;;
24681;SDS011;12802;53.390;-2.328;2023-07-22T09:10:32;19.80;;;12.52;;
24681;SDS011;12802;53.390;-2.328;2023-07-22T09:13:01;17.27;;;11.88;;
24681;SDS011;12802;53.390;-2.328;2023-07-22T09:15:28;20.77;;;11.90;;
24681;SDS011;12802;53.390;-2.328;2023-07-22T09:17:54;17.85;;;10.98;;
24681;SDS011;12802;53.390;-2.328;2023-07-22T09:20:20;20.02;;;12.90;;
24681;SDS011;12802;53.390;-2.328;2023-07-22T09:22:47;20.50;;;12.32;;
24681;SDS011;12802;53.390;-2.328;2023-07-22T09:27:44;24.20;;;12.68;;
24681;SDS011;12802;53.390;-2.328;2023-07-22T09:32:56;24.80;;;12.85;;
24681;SDS011;12802;53.390;-2.328;2023-07-22T09:35:24;21.70;;;13.25;;
24681;SDS011;12802;53.390;-2.328;2023-07-22T09:37:52;20.60;;;13.45;;
24681;SDS011;12802;53.390;-2.328;2023-07-22T09:40:20;20.25;;;13.68;;
24681;SDS011;12802;53.390;-2.328;2023-07-22T09:42:53;20.88;;;13.98;;
24681;SDS011;12802;53.390;-2.328;2023-07-22T09:45:21;16.08;;;11.73;;
24681;SDS011;12802;53.390;-2.328;2023-07-22T09:47:48;18.23;;;11.55;;
24681;SDS011;12802;53.390;-2.328;2023-07-22T09:50:17;20.92;;;13.00;;
24681;SDS011;12802;53.390;-2.328;2023-07-22T09:52:46;22.33;;;13.23;;
24681;SDS011;12802;53.390;-2.328;2023-07-22T09:55:14;24.00;;;12.55;;
24681;SDS011;12802;53.390;-2.328;2023-07-22T09:57:50;25.15;;;12.60;;
24681;SDS011;12802;53.390;-2.328;2023-07-22T10:00:19;18.88;;;12.15;;
24681;SDS011;12802;53.390;-2.328;2023-07-22T10:02:48;21.65;;;12.43;;
24681;SDS011;12802;53.390;-2.328;2023-07-22T10:05:20;15.57;;;11.45;;
24681;SDS011;12802;53.390;-2.328;2023-07-22T10:07:51;16.95;;;11.23;;
24681;SDS011;12802;53.390;-2.328;2023-07-22T10:10:19;16.50;;;11.88;;
24681;SDS011;12802;53.390;-2.328;2023-07-22T10:12:51;16.67;;;11.05;;
24681;SDS011;12802;53.390;-2.328;2023-07-22T10:15:18;17.48;;;11.30;;
24681;SDS011;12802;53.390;-2.328;2023-07-22T10:17:44;16.60;;;11.73;;
24681;SDS011;12802;53.390;-2.328;2023-07-22T10:20:11;20.35;;;11.75;;
24681;SDS011;12802;53.390;-2.328;2023-07-22T10:22:42;15.65;;;10.95;;
24681;SDS011;12802;53.390;-2.328;2023-07-22T10:25:10;21.40;;;11.63;;
24681;SDS011;12802;53.390;-2.328;2023-07-22T10:27:43;20.10;;;10.75;;
24681;SDS011;12802;53.390;-2.328;2023-07-22T10:30:10;22.45;;;12.18;;
24681;SDS011;12802;53.390;-2.328;2023-07-22T10:32:38;16.77;;;11.48;;
24681;SDS011;12802;53.390;-2.328;2023-07-22T10:35:07;19.73;;;11.25;;
24681;SDS011;12802;53.390;-2.328;2023-07-22T10:37:35;17.90;;;10.88;;
24681;SDS011;12802;53.390;-2.328;2023-07-22T10:43:00;22.10;;;12.68;;
24681;SDS011;12802;53.390;-2.328;2023-07-22T10:45:30;19.80;;;12.00;;
24681;SDS011;12802;53.390;-2.328;2023-07-22T10:48:13;16.95;;;11.65;;
24681;SDS011;12802;53.390;-2.328;2023-07-22T10:50:52;17.58;;;11.68;;
24681;SDS011;12802;53.390;-2.328;2023-07-22T10:58:33;13.80;;;10.40;;
24681;SDS011;12802;53.390;-2.328;2023-07-22T11:11:57;17.65;;;10.75;;
24681;SDS011;12802;53.390;-2.328;2023-07-22T11:14:27;14.88;;;10.27;;
24681;SDS011;12802;53.390;-2.328;2023-07-22T11:16:56;17.70;;;10.07;;
24681;SDS011;12802;53.390;-2.328;2023-07-22T11:19:23;15.57;;;10.27;;
24681;SDS011;12802;53.390;-2.328;2023-07-22T11:21:50;13.55;;;9.38;;
24681;SDS011;12802;53.390;-2.328;2023-07-22T11:24:18;16.63;;;10.15;;
24681;SDS011;12802;53.390;-2.328;2023-07-22T11:26:44;15.20;;;10.23;;
24681;SDS011;12802;53.390;-2.328;2023-07-22T11:29:11;16.80;;;10.20;;
24681;SDS011;12802;53.390;-2.328;2023-07-22T11:31:38;16.08;;;10.55;;
24681;SDS011;12802;53.390;-2.328;2023-07-22T11:34:09;12.10;;;9.25;;
24681;SDS011;12802;53.390;-2.328;2023-07-22T11:36:35;17.25;;;9.18;;
24681;SDS011;12802;53.390;-2.328;2023-07-22T11:39:05;16.20;;;9.30;;
24681;SDS011;12802;53.390;-2.328;2023-07-22T11:41:32;11.25;;;7.97;;
24681;SDS011;12802;53.390;-2.328;2023-07-22T11:43:59;12.75;;;6.95;;
24681;SDS011;12802;53.390;-2.328;2023-07-22T11:46:26;11.20;;;7.05;;
24681;SDS011;12802;53.390;-2.328;2023-07-22T11:48:53;9.88;;;6.30;;
24681;SDS011;12802;53.390;-2.328;2023-07-22T11:51:23;9.73;;;5.70;;
24681;SDS011;12802;53.390;-2.328;2023-07-22T11:53:50;7.72;;;5.55;;
24681;SDS011;12802;53.390;-2.328;2023-07-22T11:56:27;12.57;;;6.15;;
24681;SDS011;12802;53.390;-2.328;2023-07-22T11:58:55;7.70;;;5.50;;
24681;SDS011;12802;53.390;-2.328;2023-07-22T12:01:21;9.93;;;5.40;;
24681;SDS011;12802;53.390;-2.328;2023-07-22T12:03:48;8.68;;;5.20;;
24681;SDS011;12802;53.390;-2.328;2023-07-22T12:06:15;8.23;;;5.43;;
24681;SDS011;12802;53.390;-2.328;2023-07-22T12:08:44;6.65;;;5.13;;
24681;SDS011;12802;53.390;-2.328;2023-07-22T12:11:21;7.50;;;4.93;;
24681;SDS011;12802;53.390;-2.328;2023-07-22T12:13:49;8.48;;;5.68;;
24681;SDS011;12802;53.390;-2.328;2023-07-22T12:16:34;7.20;;;4.63;;
24681;SDS011;12802;53.390;-2.328;2023-07-22T12:19:02;7.70;;;4.57;;
24681;SDS011;12802;53.390;-2.328;2023-07-22T12:21:28;6.72;;;4.80;;
24681;SDS011;12802;53.390;-2.328;2023-07-22T12:23:53;5.65;;;4.47;;
24681;SDS011;12802;53.390;-2.328;2023-07-22T12:26:20;7.25;;;5.15;;
24681;SDS011;12802;53.390;-2.328;2023-07-22T12:28:46;8.30;;;4.88;;
24681;SDS011;12802;53.390;-2.328;2023-07-22T12:31:12;7.25;;;4.40;;
24681;SDS011;12802;53.390;-2.328;2023-07-22T12:33:37;7.68;;;4.72;;
24681;SDS011;12802;53.390;-2.328;2023-07-22T12:36:03;7.63;;;4.82;;
24681;SDS011;12802;53.390;-2.328;2023-07-22T12:38:30;6.40;;;4.90;;
24681;SDS011;12802;53.390;-2.328;2023-07-22T12:40:56;7.28;;;4.78;;
24681;SDS011;12802;53.390;-2.328;2023-07-22T12:43:22;5.63;;;4.40;;
24681;SDS011;12802;53.390;-2.328;2023-07-22T12:45:48;6.30;;;4.55;;
24681;SDS011;12802;53.390;-2.328;2023-07-22T12:48:13;5.82;;;4.47;;
24681;SDS011;12802;53.390;-2.328;2023-07-22T12:50:39;8.05;;;4.80;;
24681;SDS011;12802;53.390;-2.328;2023-07-22T12:53:05;6.75;;;4.40;;
24681;SDS011;12802;53.390;-2.328;2023-07-22T12:55:31;6.70;;;4.32;;
24681;SDS011;12802;53.390;-2.328;2023-07-22T12:57:57;8.15;;;4.32;;
24681;SDS011;12802;53.390;-2.328;2023-07-22T13:00:22;5.43;;;3.90;;
24681;SDS011;12802;53.390;-2.328;2023-07-22T13:02:48;6.85;;;4.18;;
24681;SDS011;12802;53.390;-2.328;2023-07-22T13:05:14;7.07;;;4.20;;
24681;SDS011;12802;53.390;-2.328;2023-07-22T13:07:40;5.70;;;4.32;;
24681;SDS011;12802;53.390;-2.328;2023-07-22T13:10:06;6.35;;;4.22;;
24681;SDS011;12802;53.390;-2.328;2023-07-22T13:12:36;6.03;;;4.10;;
24681;SDS011;12802;53.390;-2.328;2023-07-22T13:15:03;6.13;;;4.38;;
24681;SDS011;12802;53.390;-2.328;2023-07-22T13:17:29;7.35;;;4.65;;
24681;SDS011;12802;53.390;-2.328;2023-07-22T13:19:56;9.57;;;4.15;;
24681;SDS011;12802;53.390;-2.328;2023-07-22T13:22:21;6.22;;;3.92;;
24681;SDS011;12802;53.390;-2.328;2023-07-22T13:24:47;8.48;;;4.72;;
24681;SDS011;12802;53.390;-2.328;2023-07-22T13:27:13;9.35;;;4.72;;
24681;SDS011;12802;53.390;-2.328;2023-07-22T13:29:38;6.95;;;4.63;;
24681;SDS011;12802;53.390;-2.328;2023-07-22T13:32:04;5.20;;;4.43;;
24681;SDS011;12802;53.390;-2.328;2023-07-22T13:34:31;5.30;;;4.20;;
24681;SDS011;12802;53.390;-2.328;2023-07-22T13:36:57;8.77;;;4.07;;
24681;SDS011;12802;53.390;-2.328;2023-07-22T13:39:24;7.13;;;4.00;;
24681;SDS011;12802;53.390;-2.328;2023-07-22T13:41:49;5.30;;;4.30;;
24681;SDS011;12802;53.390;-2.328;2023-07-22T13:44:15;5.85;;;4.00;;
24681;SDS011;12802;53.390;-2.328;2023-07-22T13:46:41;6.32;;;4.20;;
24681;SDS011;12802;53.390;-2.328;2023-07-22T13:49:07;5.78;;;3.83;;
24681;SDS011;12802;53.390;-2.328;2023-07-22T13:51:33;6.65;;;3.80;;
24681;SDS011;12802;53.390;-2.328;2023-07-22T13:53:59;6.35;;;3.67;;
24681;SDS011;12802;53.390;-2.328;2023-07-22T13:56:25;6.63;;;3.80;;
24681;SDS011;12802;53.390;-2.328;2023-07-22T13:58:50;7.13;;;4.43;;
24681;SDS011;12802;53.390;-2.328;2023-07-22T14:01:17;5.60;;;3.83;;
24681;SDS011;12802;53.390;-2.328;2023-07-22T14:03:43;5.57;;;3.30;;
24681;SDS011;12802;53.390;-2.328;2023-07-22T14:06:08;6.13;;;3.42;;
24681;SDS011;12802;53.390;-2.328;2023-07-22T14:08:34;5.25;;;3.83;;
24681;SDS011;12802;53.390;-2.328;2023-07-22T14:11:00;3.65;;;2.80;;
24681;SDS011;12802;53.390;-2.328;2023-07-22T14:13:26;5.45;;;3.97;;
24681;SDS011;12802;53.390;-2.328;2023-07-22T14:15:51;5.35;;;3.10;;
24681;SDS011;12802;53.390;-2.328;2023-07-22T14:18:17;4.85;;;3.17;;
24681;SDS011;12802;53.390;-2.328;2023-07-22T14:20:44;4.65;;;3.00;;
24681;SDS011;12802;53.390;-2.328;2023-07-22T14:23:13;4.53;;;3.33;;
24681;SDS011;12802;53.390;-2.328;2023-07-22T14:25:39;5.32;;;2.80;;
24681;SDS011;12802;53.390;-2.328;2023-07-22T14:28:05;3.72;;;2.70;;
24681;SDS011;12802;53.390;-2.328;2023-07-22T14:30:31;4.38;;;3.03;;
24681;SDS011;12802;53.390;-2.328;2023-07-22T14:32:58;6.38;;;2.85;;
24681;SDS011;12802;53.390;-2.328;2023-07-22T14:35:23;3.58;;;2.45;;
24681;SDS011;12802;53.390;-2.328;2023-07-22T14:37:49;2.63;;;2.35;;
24681;SDS011;12802;53.390;-2.328;2023-07-22T14:40:16;5.30;;;2.95;;
24681;SDS011;12802;53.390;-2.328;2023-07-22T14:42:41;3.28;;;2.40;;
24681;SDS011;12802;53.390;-2.328;2023-07-22T14:45:08;7.45;;;2.70;;